Time;durP1;ratioP1;P1;durP2;ratioP2;P2;SDS_P1;SDS_P2;PMS_P1;PMS_P2;Temp;Humidity;BMP_temperature;BMP_pressure;BME280_temperature;BME280_humidity;BME280_pressure;Samples;Min_cycle;Max_cycle;Signal;HPM_P1;HPM_P2
2024/01/18 00:00:46;;;;;;;15.68;11.57;;;-3.00;99.90;;;;;;4939444;28;20018;-54
2024/01/18 00:03:11;;;;;;;19.42;12.60;;;-3.00;99.90;;;;;;4922525;28;20033;-54
2024/01/18 00:05:37;;;;;;;15.23;12.02;;;-3.10;99.90;;;;;;4942808;28;20668;-54
2024/01/18 00:08:02;;;;;;;17.17;12.10;;;-3.10;99.90;;;;;;4947016;28;20110;-57
2024/01/18 00:10:28;;;;;;;16.10;11.27;;;-3.10;99.90;;;;;;4936137;28;20041;-56
2024/01/18 00:12:54;;;;;;;18.45;11.95;;;-3.10;99.90;;;;;;4895475;28;20104;-60
2024/01/18 00:15:20;;;;;;;26.27;12.30;;;-3.10;99.90;;;;;;4934804;28;20037;-53
2024/01/18 00:17:45;;;;;;;15.32;12.07;;;-3.10;99.90;;;;;;4916766;28;20042;-53
2024/01/18 00:20:11;;;;;;;18.67;12.40;;;-3.20;99.90;;;;;;4969595;28;20083;-52
2024/01/18 00:22:36;;;;;;;15.43;10.52;;;-3.20;99.90;;;;;;4917700;28;20041;-56
2024/01/18 00:25:02;;;;;;;16.98;12.27;;;-3.20;99.90;;;;;;4934241;28;20061;-53
2024/01/18 00:27:27;;;;;;;19.73;12.65;;;-3.20;99.90;;;;;;4992526;28;20079;-53
2024/01/18 00:29:53;;;;;;;19.88;12.63;;;-3.20;99.90;;;;;;4956687;28;20634;-52
2024/01/18 00:32:19;;;;;;;15.85;11.93;;;-3.20;99.90;;;;;;4966590;28;20502;-53
2024/01/18 00:34:44;;;;;;;14.52;11.85;;;-3.20;99.90;;;;;;4945008;28;20073;-55
2024/01/18 00:37:10;;;;;;;18.25;12.43;;;-3.20;99.90;;;;;;4944043;28;21698;-53
2024/01/18 00:39:41;;;;;;;19.83;11.93;;;-3.20;99.90;;;;;;4965121;28;20045;-54
2024/01/18 00:42:07;;;;;;;19.17;12.68;;;-3.20;99.90;;;;;;4930920;28;20065;-59
2024/01/18 00:44:32;;;;;;;22.23;13.88;;;-3.30;99.90;;;;;;4920058;28;20045;-56
2024/01/18 00:46:58;;;;;;;17.67;12.65;;;-3.30;99.90;;;;;;4929924;28;20113;-53
2024/01/18 00:49:23;;;;;;;18.90;13.70;;;-3.30;99.90;;;;;;4917938;28;20025;-51
2024/01/18 00:51:49;;;;;;;16.92;12.48;;;-3.30;99.90;;;;;;4943928;28;20033;-60
2024/01/18 00:54:15;;;;;;;19.70;12.95;;;-3.30;99.90;;;;;;4944028;28;20034;-60
2024/01/18 00:56:40;;;;;;;17.83;12.95;;;-3.30;99.90;;;;;;4933497;28;20770;-56
2024/01/18 00:59:07;;;;;;;18.55;13.10;;;-3.30;99.90;;;;;;4911033;28;20033;-52
2024/01/18 01:01:32;;;;;;;23.70;13.38;;;-3.30;99.90;;;;;;4943855;28;20022;-53
2024/01/18 01:03:58;;;;;;;22.65;13.95;;;-3.40;99.90;;;;;;4960747;28;20061;-52
2024/01/18 01:06:23;;;;;;;18.60;12.68;;;-3.40;99.90;;;;;;4983809;28;20052;-52
2024/01/18 01:08:49;;;;;;;16.10;12.20;;;-3.40;99.90;;;;;;4934772;28;20414;-49
2024/01/18 01:11:16;;;;;;;19.27;13.50;;;-3.40;99.90;;;;;;4931635;28;20557;-54
2024/01/18 01:13:42;;;;;;;19.27;14.35;;;-3.40;99.90;;;;;;4898444;28;20992;-51
2024/01/18 01:16:08;;;;;;;16.92;12.43;;;-3.40;99.90;;;;;;4920829;28;21323;-52
2024/01/18 01:18:33;;;;;;;20.27;13.43;;;-3.50;99.90;;;;;;4968291;28;21723;-54
2024/01/18 01:20:59;;;;;;;20.63;13.32;;;-3.50;99.90;;;;;;4933188;28;20502;-55
2024/01/18 01:23:25;;;;;;;21.52;14.25;;;-3.50;99.90;;;;;;4925743;28;20037;-60
2024/01/18 01:25:50;;;;;;;19.33;12.63;;;-3.50;99.90;;;;;;4913053;28;20604;-50
2024/01/18 01:28:16;;;;;;;22.02;14.27;;;-3.50;99.90;;;;;;4951399;28;20112;-54
2024/01/18 01:30:41;;;;;;;22.38;14.25;;;-3.50;99.90;;;;;;4950628;28;20035;-53
2024/01/18 01:33:07;;;;;;;18.15;13.90;;;-3.60;99.90;;;;;;4923884;28;21321;-59
2024/01/18 01:35:32;;;;;;;21.25;14.40;;;-3.60;99.90;;;;;;4909967;28;20046;-56
2024/01/18 01:37:58;;;;;;;20.35;15.60;;;-3.50;99.90;;;;;;4936127;28;20061;-51
2024/01/18 01:40:24;;;;;;;20.70;13.85;;;-3.60;99.90;;;;;;4897629;28;20018;-53
2024/01/18 01:42:49;;;;;;;22.50;14.40;;;-3.60;99.90;;;;;;4964752;28;20534;-60
2024/01/18 01:45:15;;;;;;;20.08;14.07;;;-3.60;99.90;;;;;;4931779;28;20021;-60
2024/01/18 01:47:40;;;;;;;19.85;13.25;;;-3.60;99.90;;;;;;4923700;28;20097;-53
2024/01/18 01:50:08;;;;;;;23.67;14.70;;;-3.60;99.90;;;;;;4917002;28;20052;-52
2024/01/18 01:52:34;;;;;;;21.55;14.65;;;-3.60;99.90;;;;;;4898285;28;20018;-56
2024/01/18 01:55:01;;;;;;;20.95;15.20;;;-3.60;99.90;;;;;;4907444;28;20084;-48
2024/01/18 01:57:34;;;;;;;19.63;14.65;;;-3.60;99.90;;;;;;4958092;28;20029;-54
2024/01/18 02:00:00;;;;;;;24.00;15.00;;;-3.60;99.90;;;;;;4990482;28;20572;-55
2024/01/18 02:02:26;;;;;;;20.05;15.50;;;-3.60;99.90;;;;;;4971380;28;20042;-60
2024/01/18 02:04:52;;;;;;;16.42;13.85;;;-3.70;99.90;;;;;;4946182;28;20539;-52
2024/01/18 02:07:19;;;;;;;22.35;14.60;;;-3.70;99.90;;;;;;4964845;28;20037;-57
2024/01/18 02:09:46;;;;;;;20.98;14.88;;;-3.70;99.90;;;;;;4952297;28;21463;-53
2024/01/18 02:12:13;;;;;;;20.55;14.07;;;-3.80;99.90;;;;;;4981622;28;20026;-53
2024/01/18 02:14:38;;;;;;;19.40;15.13;;;-3.80;99.90;;;;;;4965021;28;20692;-53
2024/01/18 02:17:06;;;;;;;16.17;14.05;;;-3.80;99.90;;;;;;4957655;28;20034;-51
2024/01/18 02:19:31;;;;;;;21.75;14.52;;;-3.80;99.90;;;;;;4975110;28;20117;-51
2024/01/18 02:21:59;;;;;;;19.30;14.55;;;-3.80;99.90;;;;;;4944983;28;20166;-55
2024/01/18 02:24:49;;;;;;;21.75;14.85;;;-3.90;99.90;;;;;;4935804;28;20236;-54
2024/01/18 02:27:15;;;;;;;21.13;15.18;;;-3.90;99.90;;;;;;4963942;28;20080;-61
2024/01/18 02:29:41;;;;;;;24.23;15.40;;;-3.90;99.90;;;;;;4967649;28;20030;-54
2024/01/18 02:32:06;;;;;;;21.50;15.68;;;-3.90;99.90;;;;;;4973181;28;20037;-53
2024/01/18 02:34:38;;;;;;;22.40;15.35;;;-3.90;99.90;;;;;;4949954;28;20600;-52
2024/01/18 02:37:10;;;;;;;20.05;14.85;;;-3.90;99.90;;;;;;4943865;28;20046;-50
2024/01/18 02:39:36;;;;;;;19.10;14.95;;;-4.00;99.90;;;;;;4962397;28;21591;-56
2024/01/18 02:42:03;;;;;;;20.52;15.52;;;-4.00;99.90;;;;;;4984997;28;20033;-54
2024/01/18 02:44:28;;;;;;;20.60;15.75;;;-4.10;99.90;;;;;;4962850;28;20469;-53
2024/01/18 02:46:54;;;;;;;24.02;16.73;;;-4.10;99.90;;;;;;4961856;28;20026;-54
2024/01/18 02:49:19;;;;;;;21.77;16.55;;;-4.10;99.90;;;;;;4946854;28;20037;-57
2024/01/18 02:51:45;;;;;;;21.92;14.95;;;-4.10;99.90;;;;;;4958621;28;20401;-57
2024/01/18 02:54:11;;;;;;;25.95;17.40;;;-4.10;99.90;;;;;;4972121;28;20041;-56
2024/01/18 02:56:40;;;;;;;20.95;15.57;;;-4.00;99.90;;;;;;4942006;28;20073;-56
2024/01/18 02:59:05;;;;;;;21.90;16.05;;;-4.10;99.90;;;;;;4941826;28;20026;-56
2024/01/18 03:01:31;;;;;;;21.55;14.38;;;-4.20;99.90;;;;;;4966176;28;20085;-53
2024/01/18 03:03:57;;;;;;;23.05;15.18;;;-4.20;99.90;;;;;;4942570;28;20026;-58
2024/01/18 03:06:23;;;;;;;22.52;15.55;;;-4.20;99.90;;;;;;4951283;28;20515;-52
2024/01/18 03:08:49;;;;;;;21.17;15.00;;;-4.20;99.90;;;;;;4966527;28;20029;-57
2024/01/18 03:11:15;;;;;;;22.45;15.32;;;-4.20;99.90;;;;;;4961958;28;20061;-57
2024/01/18 03:13:40;;;;;;;22.98;15.95;;;-4.20;99.90;;;;;;4961881;28;20034;-53
2024/01/18 03:16:07;;;;;;;26.33;16.70;;;-4.30;99.90;;;;;;4944452;28;20022;-60
2024/01/18 03:18:34;;;;;;;21.13;15.65;;;-4.30;99.90;;;;;;4959078;28;20033;-57
2024/01/18 03:21:00;;;;;;;24.13;17.23;;;-4.30;99.90;;;;;;4972471;28;20091;-55
2024/01/18 03:23:25;;;;;;;21.58;14.73;;;-4.30;99.90;;;;;;4941993;28;20038;-52
2024/01/18 03:25:51;;;;;;;22.30;15.50;;;-4.40;99.90;;;;;;4957912;28;20026;-60
2024/01/18 03:28:16;;;;;;;21.48;15.50;;;-4.40;99.90;;;;;;4964042;28;20037;-54
2024/01/18 03:30:42;;;;;;;26.95;16.33;;;-4.40;99.90;;;;;;4958109;28;20564;-53
2024/01/18 03:33:07;;;;;;;18.75;14.45;;;-4.40;99.90;;;;;;4967709;28;20049;-56
2024/01/18 03:35:33;;;;;;;25.23;15.18;;;-4.40;99.90;;;;;;4942579;28;20562;-53
2024/01/18 03:37:59;;;;;;;23.35;15.07;;;-4.50;99.90;;;;;;4958646;28;20033;-54
2024/01/18 03:40:24;;;;;;;23.55;15.65;;;-4.50;99.90;;;;;;4959719;28;20062;-54
2024/01/18 03:42:50;;;;;;;20.80;15.70;;;-4.50;99.90;;;;;;4937691;28;20048;-54
2024/01/18 03:45:16;;;;;;;19.70;13.82;;;-4.50;99.90;;;;;;4956028;28;20045;-59
2024/01/18 03:47:41;;;;;;;20.88;14.88;;;-4.60;99.90;;;;;;4961828;28;20109;-53
2024/01/18 03:50:07;;;;;;;20.63;14.50;;;-4.60;99.90;;;;;;4930334;28;20040;-52
2024/01/18 03:52:32;;;;;;;19.77;14.75;;;-4.60;99.90;;;;;;4962127;28;20049;-55
2024/01/18 03:54:58;;;;;;;26.42;15.85;;;-4.60;99.90;;;;;;4937407;28;20030;-52
2024/01/18 03:57:24;;;;;;;23.10;15.32;;;-4.70;99.90;;;;;;4945076;28;20034;-53
2024/01/18 03:59:51;;;;;;;19.50;14.18;;;-4.70;99.90;;;;;;4969397;28;20038;-51
2024/01/18 04:02:16;;;;;;;20.55;15.20;;;-4.70;99.90;;;;;;4933032;28;20069;-57
2024/01/18 04:04:42;;;;;;;25.02;15.68;;;-4.70;99.90;;;;;;4957688;28;20062;-52
2024/01/18 04:07:08;;;;;;;22.50;14.55;;;-4.70;99.90;;;;;;4937595;28;20156;-59
2024/01/18 04:09:33;;;;;;;23.85;14.27;;;-4.70;99.90;;;;;;4932059;28;20026;-51
2024/01/18 04:11:59;;;;;;;22.10;15.32;;;-4.70;99.90;;;;;;4964561;28;20058;-55
2024/01/18 04:14:24;;;;;;;26.55;16.02;;;-4.70;99.90;;;;;;4929727;28;20105;-53
2024/01/18 04:16:50;;;;;;;24.42;15.60;;;-4.80;99.90;;;;;;4948526;28;20038;-62
2024/01/18 04:19:15;;;;;;;23.48;16.15;;;-4.80;99.90;;;;;;4915941;28;20053;-60
2024/01/18 04:21:42;;;;;;;24.33;16.10;;;-4.80;99.90;;;;;;4932909;28;20071;-55
2024/01/18 04:24:09;;;;;;;18.98;15.13;;;-4.80;99.90;;;;;;4948713;28;20121;-54
2024/01/18 04:26:35;;;;;;;22.23;15.52;;;-4.80;99.90;;;;;;4928543;28;20125;-54
2024/01/18 04:29:00;;;;;;;23.15;14.93;;;-4.80;99.90;;;;;;4937106;28;20037;-55
2024/01/18 04:31:26;;;;;;;26.48;16.63;;;-4.80;99.90;;;;;;4942814;28;22179;-56
2024/01/18 04:33:53;;;;;;;23.23;15.45;;;-4.80;99.90;;;;;;4928021;28;20040;-52
2024/01/18 04:36:18;;;;;;;20.42;15.77;;;-4.80;99.90;;;;;;4953115;28;20390;-54
2024/01/18 04:38:44;;;;;;;20.40;15.18;;;-4.80;99.90;;;;;;4957883;28;20124;-52
2024/01/18 04:41:10;;;;;;;23.88;15.73;;;-4.90;99.90;;;;;;4920522;28;20100;-50
2024/01/18 04:43:35;;;;;;;23.85;15.57;;;-4.90;99.90;;;;;;4931812;28;20017;-54
2024/01/18 04:46:01;;;;;;;23.70;16.15;;;-4.90;99.90;;;;;;4934573;28;20018;-54
2024/01/18 04:48:27;;;;;;;20.60;15.93;;;-4.90;99.90;;;;;;4937846;28;20107;-54
2024/01/18 04:50:52;;;;;;;21.27;14.93;;;-4.90;99.90;;;;;;4937976;28;20120;-53
2024/01/18 04:53:18;;;;;;;17.67;14.73;;;-4.90;99.90;;;;;;4903296;28;20064;-49
2024/01/18 04:55:44;;;;;;;21.90;15.57;;;-4.90;99.90;;;;;;4932689;28;20057;-53
2024/01/18 04:58:10;;;;;;;20.15;14.95;;;-4.90;99.90;;;;;;4911494;28;20036;-52
2024/01/18 05:00:35;;;;;;;22.75;15.23;;;-4.90;99.90;;;;;;4920777;28;22346;-52
2024/01/18 05:03:01;;;;;;;18.98;13.77;;;-4.90;99.90;;;;;;4966167;28;20032;-52
2024/01/18 05:05:26;;;;;;;18.73;14.65;;;-5.00;99.90;;;;;;4899452;28;20018;-50
2024/01/18 05:07:52;;;;;;;22.13;14.80;;;-4.90;99.90;;;;;;4901557;28;20026;-59
2024/01/18 05:10:17;;;;;;;18.58;13.27;;;-5.00;99.90;;;;;;4936946;28;20026;-54
2024/01/18 05:12:45;;;;;;;21.98;14.40;;;-5.00;99.90;;;;;;4923410;28;20030;-51
2024/01/18 05:15:11;;;;;;;19.95;14.85;;;-5.00;99.90;;;;;;4955219;28;20053;-54
2024/01/18 05:17:39;;;;;;;20.70;15.02;;;-5.00;99.90;;;;;;4907463;28;20096;-54
2024/01/18 05:20:06;;;;;;;20.17;14.00;;;-5.00;99.90;;;;;;4883605;28;20619;-55
2024/01/18 05:22:33;;;;;;;17.45;13.77;;;-5.00;99.90;;;;;;4947891;28;20029;-57
2024/01/18 05:25:00;;;;;;;19.70;14.05;;;-5.10;99.90;;;;;;4912095;28;20034;-52
2024/01/18 05:27:30;;;;;;;21.92;14.80;;;-5.10;99.90;;;;;;4949659;28;20053;-59
2024/01/18 05:29:56;;;;;;;21.33;14.43;;;-5.00;99.90;;;;;;4927798;28;20022;-50
2024/01/18 05:32:22;;;;;;;20.00;14.68;;;-5.10;99.90;;;;;;4899311;28;20037;-53
2024/01/18 05:34:48;;;;;;;19.05;14.45;;;-5.10;99.90;;;;;;4944700;28;20092;-51
2024/01/18 05:37:14;;;;;;;19.55;14.38;;;-5.10;99.90;;;;;;4913745;28;20022;-53
2024/01/18 05:39:40;;;;;;;17.20;13.80;;;-5.10;99.90;;;;;;4905333;28;20045;-53
2024/01/18 05:42:06;;;;;;;20.77;14.02;;;-5.10;99.90;;;;;;4962738;28;20022;-52
2024/01/18 05:44:31;;;;;;;24.10;14.70;;;-5.10;99.90;;;;;;4903620;28;20378;-53
2024/01/18 05:46:57;;;;;;;20.27;14.68;;;-5.10;99.90;;;;;;4903947;28;20022;-60
2024/01/18 05:49:22;;;;;;;20.40;13.70;;;-5.10;99.90;;;;;;4939144;28;20033;-54
2024/01/18 05:51:48;;;;;;;18.10;14.25;;;-5.10;99.90;;;;;;4910693;28;20631;-51
2024/01/18 05:54:13;;;;;;;20.77;14.70;;;-5.10;99.90;;;;;;4977467;28;20490;-51
2024/01/18 05:56:39;;;;;;;19.10;13.23;;;-5.10;99.90;;;;;;4906662;28;20378;-51
2024/01/18 05:59:05;;;;;;;20.40;14.85;;;-5.20;99.90;;;;;;4892327;28;20402;-53
2024/01/18 06:01:31;;;;;;;22.40;15.02;;;-5.20;99.90;;;;;;4939239;28;20434;-53
2024/01/18 06:03:57;;;;;;;19.25;14.68;;;-5.20;99.90;;;;;;4921505;28;20026;-51
2024/01/18 06:06:23;;;;;;;20.08;14.35;;;-5.20;99.90;;;;;;4944343;28;20023;-55
2024/01/18 06:08:49;;;;;;;19.20;14.40;;;-5.20;99.90;;;;;;4951066;28;20044;-57
2024/01/18 06:11:14;;;;;;;18.63;13.23;;;-5.20;99.90;;;;;;4915751;28;20030;-49
2024/01/18 06:13:40;;;;;;;19.90;13.55;;;-5.30;99.90;;;;;;4938435;28;20091;-51
2024/01/18 06:16:11;;;;;;;19.02;14.20;;;-5.30;99.90;;;;;;4920446;28;20088;-59
2024/01/18 06:18:38;;;;;;;23.42;15.68;;;-5.30;99.90;;;;;;4925437;22;21460;-60
2024/01/18 06:21:06;;;;;;;17.50;14.32;;;-5.30;99.90;;;;;;4939663;28;20036;-61
2024/01/18 06:23:32;;;;;;;20.08;14.05;;;-5.30;99.90;;;;;;4902826;28;20510;-60
2024/01/18 06:25:58;;;;;;;19.88;14.60;;;-5.30;99.90;;;;;;4896208;28;20133;-61
2024/01/18 06:28:23;;;;;;;20.42;14.10;;;-5.30;99.90;;;;;;4934971;28;20030;-59
2024/01/18 06:30:49;;;;;;;18.95;13.60;;;-5.30;99.90;;;;;;4872240;28;20038;-61
2024/01/18 06:33:14;;;;;;;21.02;13.80;;;-5.30;99.90;;;;;;4930613;28;20030;-59
2024/01/18 06:35:40;;;;;;;22.65;14.68;;;-5.30;99.90;;;;;;4895791;28;20461;-60
2024/01/18 06:38:06;;;;;;;20.67;15.68;;;-5.40;99.90;;;;;;4893455;28;20065;-61
2024/01/18 06:40:31;;;;;;;23.25;16.88;;;-5.40;99.90;;;;;;4938902;28;20018;-60
2024/01/18 06:42:57;;;;;;;71.43;35.58;;;-5.40;99.90;;;;;;4869578;28;20030;-61
2024/01/18 06:45:23;;;;;;;60.95;33.35;;;-5.40;99.90;;;;;;4900822;28;20030;-61
2024/01/18 06:47:48;;;;;;;49.35;28.05;;;-5.40;99.90;;;;;;4915883;28;20025;-60
2024/01/18 06:50:15;;;;;;;43.28;24.63;;;-5.40;99.90;;;;;;4893996;28;20121;-61
2024/01/18 06:52:41;;;;;;;35.60;22.17;;;-5.50;99.90;;;;;;4911881;28;20034;-61
2024/01/18 06:55:08;;;;;;;31.75;19.50;;;-5.50;99.90;;;;;;4864743;28;20065;-60
2024/01/18 06:57:34;;;;;;;21.05;16.27;;;-5.40;99.90;;;;;;4907458;28;20439;-61
2024/01/18 07:00:00;;;;;;;25.10;16.25;;;-5.40;99.90;;;;;;4918648;28;20034;-61
2024/01/18 07:02:25;;;;;;;23.20;15.43;;;-5.50;99.90;;;;;;4910622;28;20036;-61
2024/01/18 07:04:51;;;;;;;25.42;17.50;;;-5.50;99.90;;;;;;4960515;28;20087;-61
2024/01/18 07:07:17;;;;;;;23.27;13.65;;;-5.50;99.90;;;;;;4879127;28;20491;-61
2024/01/18 07:09:43;;;;;;;22.33;14.27;;;-5.50;99.90;;;;;;4912526;28;20018;-61
2024/01/18 07:12:09;;;;;;;23.60;14.80;;;-5.50;99.90;;;;;;4922935;28;20642;-61
2024/01/18 07:14:35;;;;;;;21.67;14.60;;;-5.50;99.90;;;;;;4912050;28;20406;-61
2024/01/18 07:17:01;;;;;;;24.45;15.02;;;-5.50;99.90;;;;;;4919321;28;20034;-61
2024/01/18 07:19:27;;;;;;;20.38;13.95;;;-5.50;99.90;;;;;;4962851;28;20034;-61
2024/01/18 07:21:53;;;;;;;23.33;15.15;;;-5.60;99.90;;;;;;4914581;28;20042;-60
2024/01/18 07:24:21;;;;;;;20.40;13.60;;;-5.60;99.90;;;;;;4908874;28;20122;-61
2024/01/18 07:26:47;;;;;;;22.13;14.43;;;-5.60;99.90;;;;;;4881384;28;20100;-60
2024/01/18 07:29:13;;;;;;;22.35;13.82;;;-5.50;99.90;;;;;;4914678;28;22791;-60
2024/01/18 07:31:39;;;;;;;19.77;13.65;;;-5.60;99.90;;;;;;4968348;28;20179;-61
2024/01/18 07:34:04;;;;;;;20.67;13.95;;;-5.60;99.90;;;;;;4942222;28;20035;-61
2024/01/18 07:36:30;;;;;;;23.05;14.30;;;-5.60;99.90;;;;;;4907808;28;20042;-61
2024/01/18 07:38:57;;;;;;;23.77;15.23;;;-5.60;99.90;;;;;;4904198;28;20045;-62
2024/01/18 07:41:22;;;;;;;21.35;14.10;;;-5.50;99.90;;;;;;4892465;28;20117;-60
2024/01/18 07:43:48;;;;;;;22.27;14.20;;;-5.60;99.90;;;;;;4956133;28;20149;-60
2024/01/18 07:46:13;;;;;;;24.95;15.63;;;-5.50;99.90;;;;;;4904250;28;20031;-61
2024/01/18 07:48:39;;;;;;;24.35;15.50;;;-5.50;99.90;;;;;;4907335;28;20034;-61
2024/01/18 07:51:04;;;;;;;24.00;15.75;;;-5.50;99.90;;;;;;4885656;28;20042;-60
2024/01/18 07:53:30;;;;;;;25.25;16.17;;;-5.50;99.90;;;;;;4891533;28;20109;-60
2024/01/18 07:55:55;;;;;;;21.23;16.40;;;-5.50;99.90;;;;;;4930334;28;20023;-62
2024/01/18 07:58:21;;;;;;;26.30;16.13;;;-5.50;99.90;;;;;;4936032;28;20022;-60
2024/01/18 08:00:46;;;;;;;21.83;15.70;;;-5.50;99.90;;;;;;4921318;28;20027;-60
2024/01/18 08:03:12;;;;;;;27.15;17.85;;;-5.50;99.90;;;;;;4903528;28;20018;-59
2024/01/18 08:05:38;;;;;;;23.67;17.02;;;-5.50;99.90;;;;;;4899444;28;20457;-60
2024/01/18 08:08:04;;;;;;;23.42;15.93;;;-5.40;99.90;;;;;;4894468;28;20030;-62
2024/01/18 08:10:29;;;;;;;23.70;16.10;;;-5.40;99.90;;;;;;4953839;28;20022;-60
2024/01/18 08:12:55;;;;;;;22.55;15.25;;;-5.40;99.90;;;;;;4924209;28;20034;-59
2024/01/18 08:15:21;;;;;;;25.80;17.15;;;-5.40;99.90;;;;;;4906499;28;20097;-59
2024/01/18 08:17:47;;;;;;;26.92;15.85;;;-5.30;99.90;;;;;;4890384;28;20026;-60
2024/01/18 08:20:13;;;;;;;20.45;15.27;;;-5.30;99.90;;;;;;4893939;28;22071;-61
2024/01/18 08:22:39;;;;;;;22.27;15.35;;;-5.20;99.90;;;;;;4959828;28;20057;-60
2024/01/18 08:25:06;;;;;;;29.00;16.85;;;-5.20;99.90;;;;;;4913699;28;20026;-59
2024/01/18 08:27:32;;;;;;;21.45;15.93;;;-5.10;99.90;;;;;;4897277;28;20356;-60
2024/01/18 08:29:58;;;;;;;19.63;15.15;;;-5.10;99.90;;;;;;4895357;28;20098;-60
2024/01/18 08:32:28;;;;;;;25.13;16.02;;;-5.10;99.90;;;;;;4894775;28;21377;-59
2024/01/18 08:34:54;;;;;;;23.77;15.80;;;-5.00;99.90;;;;;;4916078;28;20118;-61
2024/01/18 08:37:19;;;;;;;22.75;16.35;;;-5.00;99.90;;;;;;4914624;28;20116;-61
2024/01/18 08:39:46;;;;;;;27.10;15.93;;;-4.90;99.90;;;;;;4982489;28;20503;-61
2024/01/18 08:42:12;;;;;;;24.25;15.90;;;-4.90;99.90;;;;;;4957561;28;20383;-59
2024/01/18 08:44:38;;;;;;;24.85;16.70;;;-4.80;99.90;;;;;;4947709;28;20030;-60
2024/01/18 08:47:04;;;;;;;21.23;15.35;;;-4.80;99.90;;;;;;4947722;28;20049;-61
2024/01/18 08:49:30;;;;;;;21.93;15.30;;;-4.70;99.90;;;;;;4949918;28;20618;-60
2024/01/18 08:51:56;;;;;;;25.33;16.40;;;-4.60;99.90;;;;;;4961322;28;20399;-61
2024/01/18 08:54:21;;;;;;;26.85;15.98;;;-4.60;99.90;;;;;;4933205;28;20113;-60
2024/01/18 08:56:47;;;;;;;26.05;16.13;;;-4.50;99.90;;;;;;4940692;28;20034;-61
2024/01/18 08:59:13;;;;;;;23.63;16.77;;;-4.40;99.90;;;;;;4938104;28;20121;-61
2024/01/18 09:01:38;;;;;;;24.30;15.13;;;-4.30;99.90;;;;;;4900406;28;21782;-61
2024/01/18 09:04:04;;;;;;;28.88;16.08;;;-4.30;99.90;;;;;;4962068;28;20022;-60
2024/01/18 09:06:29;;;;;;;25.77;15.43;;;-4.20;99.90;;;;;;4939356;28;20054;-61
2024/01/18 09:08:55;;;;;;;22.45;16.02;;;-4.20;99.90;;;;;;4929297;28;20027;-61
2024/01/18 09:11:21;;;;;;;22.02;15.98;;;-4.10;99.90;;;;;;4950047;28;20666;-60
2024/01/18 09:13:47;;;;;;;24.55;15.80;;;-4.00;99.90;;;;;;4943083;28;20030;-60
2024/01/18 09:16:18;;;;;;;24.27;16.58;;;-4.00;99.90;;;;;;4958485;28;20030;-60
2024/01/18 09:18:44;;;;;;;25.25;15.10;;;-3.90;99.90;;;;;;4948428;28;20036;-59
2024/01/18 09:21:10;;;;;;;21.35;15.52;;;-3.90;99.90;;;;;;4941291;28;21842;-61
2024/01/18 09:23:36;;;;;;;21.75;14.70;;;-3.90;99.90;;;;;;4953666;28;21115;-61
2024/01/18 09:26:02;;;;;;;20.88;15.05;;;-3.80;99.90;;;;;;4941928;28;20050;-59
2024/01/18 09:28:27;;;;;;;22.55;15.05;;;-3.70;99.90;;;;;;4936145;28;20438;-62
2024/01/18 09:30:53;;;;;;;23.30;16.73;;;-3.60;99.90;;;;;;4950507;28;20620;-62
2024/01/18 09:33:19;;;;;;;20.10;14.82;;;-3.50;99.90;;;;;;4936810;28;20026;-61
2024/01/18 09:35:44;;;;;;;22.38;15.70;;;-3.50;99.90;;;;;;4951716;28;20041;-60
2024/01/18 09:38:10;;;;;;;24.10;16.13;;;-3.40;99.90;;;;;;4924937;28;20040;-61
2024/01/18 09:40:39;;;;;;;22.75;15.00;;;-3.30;99.90;;;;;;4938696;28;21231;-60
2024/01/18 09:43:07;;;;;;;21.88;14.10;;;-3.20;99.90;;;;;;4950096;28;20023;-61
2024/01/18 09:45:39;;;;;;;24.70;14.80;;;-3.20;99.90;;;;;;4934768;28;20038;-61
2024/01/18 09:48:05;;;;;;;23.08;16.05;;;-3.10;99.90;;;;;;4927349;28;20027;-61
2024/01/18 09:50:32;;;;;;;22.67;15.13;;;-3.00;99.90;;;;;;4942462;28;20521;-61
2024/01/18 09:52:58;;;;;;;21.90;13.90;;;-2.90;99.90;;;;;;4933109;28;20035;-61
2024/01/18 09:55:24;;;;;;;24.70;14.30;;;-2.80;99.90;;;;;;4924059;28;20049;-60
2024/01/18 09:57:55;;;;;;;21.38;14.77;;;-2.70;99.90;;;;;;4957090;28;20406;-61
2024/01/18 10:00:26;;;;;;;21.30;14.35;;;-2.60;99.90;;;;;;4923468;28;20098;-61
2024/01/18 10:02:52;;;;;;;23.35;14.50;;;-2.50;99.90;;;;;;4933443;28;20105;-61
2024/01/18 10:05:19;;;;;;;21.85;14.90;;;-2.40;99.90;;;;;;4940033;28;20076;-61
2024/01/18 10:07:44;;;;;;;23.80;14.48;;;-2.30;99.90;;;;;;4928986;28;20023;-61
2024/01/18 10:10:14;;;;;;;25.13;15.60;;;-2.20;99.90;;;;;;4955218;28;20057;-60
2024/01/18 10:12:42;;;;;;;25.75;16.02;;;-2.10;99.90;;;;;;4906412;28;20041;-59
2024/01/18 10:15:09;;;;;;;21.15;15.25;;;-2.00;99.90;;;;;;4916662;28;20517;-61
2024/01/18 10:17:37;;;;;;;21.85;15.88;;;-2.00;99.90;;;;;;4965636;28;20045;-60
2024/01/18 10:20:04;;;;;;;20.23;15.38;;;-1.90;99.90;;;;;;4922077;28;20023;-60
2024/01/18 10:22:29;;;;;;;22.92;15.25;;;-1.80;99.90;;;;;;4912721;28;20014;-60
2024/01/18 10:24:55;;;;;;;21.73;15.60;;;-1.80;99.90;;;;;;4948324;28;20398;-61
2024/01/18 10:27:25;;;;;;;22.65;14.63;;;-1.70;99.90;;;;;;4925482;28;20026;-61
2024/01/18 10:29:51;;;;;;;23.98;15.10;;;-1.60;99.90;;;;;;4925976;28;20039;-62
2024/01/18 10:32:17;;;;;;;19.25;14.00;;;-1.60;99.90;;;;;;4929273;28;20046;-62
2024/01/18 10:34:43;;;;;;;22.27;14.98;;;-1.50;99.90;;;;;;4920915;28;20038;-61
2024/01/18 10:37:15;;;;;;;20.40;13.35;;;-1.50;99.90;;;;;;4953060;28;20037;-61
2024/01/18 10:39:41;;;;;;;22.67;15.10;;;-1.40;99.90;;;;;;4887434;28;20034;-61
2024/01/18 10:42:08;;;;;;;23.00;14.25;;;-1.40;99.90;;;;;;4933781;28;20023;-61
2024/01/18 10:44:45;;;;;;;19.13;13.30;;;-1.30;99.90;;;;;;4929110;28;20041;-62
2024/01/18 10:47:14;;;;;;;19.15;12.52;;;-1.30;99.90;;;;;;4928455;28;20082;-61
2024/01/18 10:49:41;;;;;;;16.67;12.63;;;-1.20;99.90;;;;;;4913892;28;22970;-59
2024/01/18 10:52:08;;;;;;;18.90;12.57;;;-1.20;99.90;;;;;;4948811;28;20223;-62
2024/01/18 10:54:34;;;;;;;21.40;12.20;;;-1.10;99.90;;;;;;4886878;28;20054;-62
2024/01/18 10:57:00;;;;;;;20.92;11.98;;;-1.00;99.90;;;;;;4913607;28;20124;-61
2024/01/18 10:59:27;;;;;;;18.42;11.80;;;-1.00;99.90;;;;;;4925506;28;20114;-60
2024/01/18 11:02:00;;;;;;;16.50;10.68;;;-0.90;99.90;;;;;;4906735;28;20022;-63
2024/01/18 11:04:33;;;;;;;18.25;11.13;;;-0.80;99.90;;;;;;4907153;28;20106;-63
2024/01/18 11:06:59;;;;;;;16.55;11.13;;;-0.70;99.90;;;;;;4947587;28;20139;-62
2024/01/18 11:09:26;;;;;;;17.17;9.77;;;-0.70;99.90;;;;;;4905790;28;20041;-62
2024/01/18 11:11:53;;;;;;;15.95;9.57;;;-0.70;99.90;;;;;;4914353;28;20058;-62
2024/01/18 11:14:20;;;;;;;17.00;9.90;;;-0.70;99.90;;;;;;4941899;28;20206;-62
2024/01/18 11:16:46;;;;;;;10.95;8.93;;;-0.60;99.90;;;;;;4904670;28;22778;-61
2024/01/18 11:19:11;;;;;;;13.77;9.43;;;-0.60;99.90;;;;;;4933852;28;20033;-62
2024/01/18 11:21:40;;;;;;;13.15;8.82;;;-0.60;99.90;;;;;;4906047;28;20731;-62
2024/01/18 11:24:07;;;;;;;9.70;6.90;;;-0.60;99.90;;;;;;4893926;28;20234;-62
2024/01/18 11:26:33;;;;;;;10.32;7.82;;;-0.60;99.90;;;;;;4938341;28;20161;-62
2024/01/18 11:29:18;;;;;;;12.00;8.25;;;-0.50;99.90;;;;;;4899643;28;20030;-61
2024/01/18 11:31:50;;;;;;;12.68;7.82;;;-0.50;99.90;;;;;;4902662;28;22084;-62
2024/01/18 11:34:34;;;;;;;13.82;8.70;;;-0.40;99.90;;;;;;4943515;28;20080;-61
2024/01/18 11:37:14;;;;;;;15.57;8.57;;;-0.40;99.90;;;;;;4935735;28;20026;-61
2024/01/18 11:39:49;;;;;;;10.63;7.53;;;-0.30;99.90;;;;;;4895772;28;20026;-62
2024/01/18 11:42:21;;;;;;;10.25;7.45;;;-0.20;99.90;;;;;;4914083;28;20038;-60
2024/01/18 11:44:55;;;;;;;9.70;6.88;;;-0.20;99.90;;;;;;4925631;28;20099;-61
2024/01/18 11:47:23;;;;;;;8.35;6.35;;;-0.10;99.90;;;;;;4963872;28;20061;-62
2024/01/18 11:49:49;;;;;;;9.57;6.38;;;-0.10;99.90;;;;;;4915021;28;20135;-61
2024/01/18 11:52:15;;;;;;;6.45;5.82;;;-0.10;99.90;;;;;;4945871;28;20096;-61
2024/01/18 11:54:44;;;;;;;9.70;6.80;;;-0.10;99.90;;;;;;4893429;28;20518;-61
2024/01/18 11:57:13;;;;;;;7.88;6.38;;;0.00;99.90;;;;;;4908826;28;20513;-60
2024/01/18 11:59:44;;;;;;;6.45;5.68;;;0.00;99.90;;;;;;4923567;28;20037;-61
2024/01/18 12:02:13;;;;;;;10.52;5.93;;;0.10;99.90;;;;;;4881843;28;20019;-61
2024/01/18 12:04:39;;;;;;;5.57;4.70;;;0.10;99.90;;;;;;4894151;28;22555;-61
2024/01/18 12:07:06;;;;;;;7.63;4.97;;;0.20;99.90;;;;;;4942767;28;20023;-62
2024/01/18 12:09:31;;;;;;;6.18;4.32;;;0.20;99.90;;;;;;4882230;28;20031;-61
2024/01/18 12:11:59;;;;;;;5.82;4.25;;;0.30;99.90;;;;;;4894866;28;20039;-63
2024/01/18 12:14:25;;;;;;;7.70;5.40;;;0.40;99.90;;;;;;4927008;28;20037;-62
2024/01/18 12:16:50;;;;;;;7.32;3.63;;;0.50;99.90;;;;;;4886448;28;20039;-61
2024/01/18 12:19:48;;;;;;;4.05;3.15;;;0.50;99.90;;;;;;5065269;22;20884;-54
2024/01/18 12:22:19;;;;;;;4.70;2.72;;;0.60;99.90;;;;;;4900016;28;20503;-50
2024/01/18 12:24:48;;;;;;;2.22;1.85;;;0.60;99.90;;;;;;4896500;28;20035;-49